Lake Worth, FL

8:31 PM EDT on September 02, 2015 (GMT -0400)
River Bridge | | Change Station
CLOSE
Current Station
Personal Weather Station
Location: Greenacres, FL
Elevation: 36 ft
Nearby Weather Stations

Elev 36 ft 26.64 °N, 80.15 °W | Updated 28 seconds ago

Partly Cloudy
Partly Cloudy
82.1 °F
Feels Like 91 °F
N
0.0
Wind Variable Wind from ESE
Gusts 0.0 mph

Today
High -- | Low -- °F
--% Chance of Precip.
Yesterday
High -- | Low -- °F
Precip. -- in
7:00 AM 7:39 PM
Waning Gibbous, 76% visible
Pressure 30.01 in
Visibility 10.0 miles
Clouds Scattered Clouds 2600 ft
Scattered Clouds 25000 ft
Heat Index 91 °F
Dew Point 78 °F
Humidity 88%
Rainfall 0.26 in
Snow Depth Not available.
UV 0 out of 12
Pollen 4.70 out of 12
Air Quality Not available.
Flu Activity Not available.
METAR KPBI 022353Z 09009KT 10SM SCT026 SCT250 29/24 A3001 RMK AO2 SLP160 T02940244 10322 20289 53001
Pressure 30.01 in
Visibility 10.0 miles
Clouds Scattered Clouds 2600 ft
Scattered Clouds 25000 ft
Heat Index 91 °F
Dew Point 78 °F
Humidity 88%
Rainfall 0.26 in
Snow Depth Not available.
UV 0 out of 12
Pollen 4.70 out of 12
Air Quality Not available.
Flu Activity Not available.
METAR KPBI 022353Z 09009KT 10SM SCT026 SCT250 29/24 A3001 RMK AO2 SLP160 T02940244 10322 20289 53001

10-Day Weather Forecast

×

Almanac

Astronomy

Sep. 02, 2015 Rise Set
Actual Time
Civil Twilight
Nautical Twilight
Astronomical Twilight
Moon
Length of Visible Light
Length of Day
Tomorrow will be .
, % of the Moon is Illuminated

Today's Extremes

State Highs State Lows

Community

WunderPhotos

Upload Photos

1,851,853 photos uploaded!

WunderBlogs® & News

Nearby

Air Quality

  Air Quality AQ Index Pollutant
Not available.

Snow Depth

Station Depth Elevation

Earthquake Activity

City Distance Mag. Time & Date
Minimum magnitude displayed is 2.5.

Coastal Water Temperatures

Place Temperature

Stations

Nearby Weather Stations

Station Location Temp. Windchill Dew Point Humidity Wind Precip. Elev Updated Type